createdAt,value
2023-04-07T00:01:16.790Z,99310.04
2023-04-07T00:03:44.748Z,99308.11
2023-04-07T00:06:12.944Z,99303.29
2023-04-07T00:08:41.340Z,99300.32
2023-04-07T00:11:09.196Z,99299.63
2023-04-07T00:13:37.027Z,99300.77
2023-04-07T00:16:04.971Z,99299.02
2023-04-07T00:18:32.823Z,99297.51
2023-04-07T00:21:00.728Z,99292.46
2023-04-07T00:23:28.534Z,99291.67
2023-04-07T00:25:56.596Z,99295.03
2023-04-07T00:28:24.570Z,99293.80
2023-04-07T00:30:52.573Z,99290.15
2023-04-07T00:33:20.451Z,99288.15
2023-04-07T00:35:48.285Z,99286.77
2023-04-07T00:38:16.267Z,99286.80
2023-04-07T00:40:44.208Z,99285.16
2023-04-07T00:43:12.115Z,99282.42
2023-04-07T00:45:39.950Z,99282.57
2023-04-07T00:48:08.004Z,99277.64
2023-04-07T00:50:35.945Z,99276.05
2023-04-07T00:53:04.624Z,99275.88
2023-04-07T00:55:32.583Z,99275.15
2023-04-07T00:58:00.797Z,99274.61
2023-04-07T01:00:29.054Z,99271.32
2023-04-07T01:03:09.460Z,99266.38
2023-04-07T01:05:50.822Z,99266.29
2023-04-07T01:08:30.743Z,99263.89
2023-04-07T01:11:21.099Z,99262.26
2023-04-07T01:13:51.142Z,99261.59
2023-04-07T01:16:40.035Z,99257.64
2023-04-07T01:19:27.154Z,99257.27
2023-04-07T01:21:59.689Z,99254.27
2023-04-07T01:24:45.951Z,99259.36
2023-04-07T01:27:43.582Z,99259.50
2023-04-07T01:30:13.205Z,99258.48
2023-04-07T01:32:44.089Z,99260.95
2023-04-07T01:35:13.675Z,99253.27
2023-04-07T01:37:43.387Z,99250.02
2023-04-07T01:40:12.588Z,99255.96
2023-04-07T01:42:42.323Z,99255.77
2023-04-07T01:45:11.519Z,99253.45
2023-04-07T01:47:40.043Z,99253.09
2023-04-07T01:50:11.562Z,99254.55
2023-04-07T01:52:40.423Z,99254.30
2023-04-07T01:55:09.820Z,99253.34
2023-04-07T01:57:42.484Z,99247.70
2023-04-07T02:00:15.566Z,99247.13
2023-04-07T02:02:46.661Z,99244.06
2023-04-07T02:05:19.121Z,99241.15
2023-04-07T02:07:58.167Z,99239.85
2023-04-07T02:10:29.446Z,99242.45
2023-04-07T02:13:04.086Z,99240.52
2023-04-07T02:15:32.343Z,99234.98
2023-04-07T02:18:02.069Z,99234.98
2023-04-07T02:20:31.162Z,99233.06
2023-04-07T02:22:59.224Z,99233.61
2023-04-07T02:25:29.880Z,99228.42
2023-04-07T02:27:59.792Z,99227.39
2023-04-07T02:30:28.533Z,99227.78
2023-04-07T02:32:57.306Z,99225.19
2023-04-07T02:35:25.420Z,99222.67
2023-04-07T02:37:53.902Z,99219.67
2023-04-07T02:40:21.789Z,99217.57
2023-04-07T02:42:49.625Z,99215.55
2023-04-07T02:45:17.506Z,99215.44
2023-04-07T02:47:45.493Z,99216.93
2023-04-07T02:50:13.359Z,99214.84
2023-04-07T02:52:41.521Z,99213.46
2023-04-07T02:55:12.880Z,99216.63
2023-04-07T02:57:40.848Z,99218.60
2023-04-07T03:00:29.355Z,99215.64
2023-04-07T03:03:23.724Z,99212.48
2023-04-07T03:06:00.692Z,99210.23
2023-04-07T03:08:29.053Z,99208.15
2023-04-07T03:10:57.476Z,99206.91
2023-04-07T03:13:30.852Z,99203.91
2023-04-07T03:15:58.736Z,99204.14
2023-04-07T03:18:27.395Z,99210.33
2023-04-07T03:20:59.661Z,99213.98
2023-04-07T03:23:29.414Z,99210.80
2023-04-07T03:25:58.279Z,99207.42
2023-04-07T03:28:28.910Z,99204.38
2023-04-07T03:30:56.901Z,99206.36
2023-04-07T03:33:24.925Z,99208.02
2023-04-07T03:35:54.820Z,99207.73
2023-04-07T03:38:23.132Z,99207.80
2023-04-07T03:40:53.658Z,99209.70
2023-04-07T03:43:22.136Z,99209.18
2023-04-07T03:45:50.657Z,99208.06
2023-04-07T03:48:19.832Z,99206.28
2023-04-07T03:50:56.788Z,99201.45
2023-04-07T03:53:24.904Z,99197.08
2023-04-07T03:55:53.606Z,99196.10
2023-04-07T03:58:28.866Z,99193.21
2023-04-07T04:00:57.670Z,99188.61
2023-04-07T04:03:25.971Z,99185.58
2023-04-07T04:06:03.601Z,99185.37
2023-04-07T04:08:32.544Z,99193.03
2023-04-07T04:11:00.558Z,99199.91
2023-04-07T04:13:32.623Z,99199.15
2023-04-07T04:16:03.075Z,99192.73
2023-04-07T04:18:31.286Z,99193.45
2023-04-07T04:20:59.224Z,99197.41
2023-04-07T04:23:27.857Z,99201.51
2023-04-07T04:25:56.977Z,99208.30
2023-04-07T04:28:25.017Z,99204.86
2023-04-07T04:30:53.037Z,99208.54
2023-04-07T04:33:21.459Z,99213.00
2023-04-07T04:35:54.223Z,99214.59
2023-04-07T04:38:22.507Z,99215.89
2023-04-07T04:41:06.180Z,99213.80
2023-04-07T04:43:34.944Z,99212.37
2023-04-07T04:46:03.274Z,99211.02
2023-04-07T04:48:33.855Z,99213.66
2023-04-07T04:51:01.770Z,99210.58
2023-04-07T04:53:31.678Z,99208.85
2023-04-07T04:56:01.746Z,99211.70
2023-04-07T04:58:46.716Z,99213.30
2023-04-07T05:01:23.108Z,99212.95
2023-04-07T05:03:59.646Z,99216.89
2023-04-07T05:06:29.552Z,99215.70
2023-04-07T05:08:59.619Z,99215.55
2023-04-07T05:11:31.830Z,99212.59
2023-04-07T05:14:01.050Z,99209.42
2023-04-07T05:16:29.049Z,99206.05
2023-04-07T05:18:57.335Z,99206.14
2023-04-07T05:21:27.161Z,99202.09
2023-04-07T05:23:55.508Z,99205.34
2023-04-07T05:26:23.569Z,99208.20
2023-04-07T05:28:51.682Z,99214.91
2023-04-07T05:31:21.980Z,99216.05
2023-04-07T05:33:51.079Z,99216.66
2023-04-07T05:36:20.326Z,99215.88
2023-04-07T05:38:48.280Z,99219.80
2023-04-07T05:41:18.293Z,99218.85
2023-04-07T05:43:46.092Z,99218.59
2023-04-07T05:46:15.742Z,99217.11
2023-04-07T05:48:50.445Z,99221.77
2023-04-07T05:51:19.318Z,99224.70
2023-04-07T05:53:47.246Z,99226.85
2023-04-07T05:56:16.605Z,99228.09
2023-04-07T05:58:48.627Z,99220.61
2023-04-07T06:01:16.926Z,99219.83
2023-04-07T06:03:44.868Z,99222.33
2023-04-07T06:06:16.501Z,99221.77
2023-04-07T06:08:46.198Z,99219.86
2023-04-07T06:11:14.412Z,99220.11
2023-04-07T06:13:42.423Z,99220.46
2023-04-07T06:16:10.437Z,99217.98
2023-04-07T06:18:38.734Z,99215.46
2023-04-07T06:21:07.709Z,99211.98
2023-04-07T06:23:35.601Z,99212.50
2023-04-07T06:26:11.231Z,99208.30
2023-04-07T06:28:39.331Z,99211.36
2023-04-07T06:31:08.749Z,99213.87
2023-04-07T06:33:37.200Z,99213.69
2023-04-07T06:36:05.246Z,99210.70
2023-04-07T06:38:33.202Z,99209.42
2023-04-07T06:41:01.091Z,99207.25
2023-04-07T06:43:28.952Z,99202.43
2023-04-07T06:46:01.886Z,99202.25
2023-04-07T06:48:29.805Z,99196.92
2023-04-07T06:50:57.665Z,99199.63
2023-04-07T06:53:25.765Z,99197.80
2023-04-07T06:56:03.773Z,99201.16
2023-04-07T06:58:31.674Z,99199.52
2023-04-07T07:01:00.558Z,99202.70
2023-04-07T07:03:29.603Z,99205.29
2023-04-07T07:06:01.171Z,99205.16
2023-04-07T07:08:29.712Z,99200.73
2023-04-07T07:10:57.809Z,99205.06
2023-04-07T07:13:27.055Z,99206.35
2023-04-07T07:15:55.191Z,99202.59
2023-04-07T07:18:23.118Z,99205.98
2023-04-07T07:20:51.193Z,99209.83
2023-04-07T07:23:18.999Z,99208.15
2023-04-07T07:25:46.864Z,99210.65
2023-04-07T07:28:14.758Z,99215.64
2023-04-07T07:30:42.614Z,99215.05
2023-04-07T07:33:10.478Z,99216.60
2023-04-07T07:35:38.514Z,99216.48
2023-04-07T07:38:06.534Z,99215.83
2023-04-07T07:40:34.476Z,99216.08
2023-04-07T07:43:02.434Z,99215.64
2023-04-07T07:45:30.261Z,99215.48
2023-04-07T07:47:58.168Z,99218.16
2023-04-07T07:50:26.310Z,99213.33
2023-04-07T07:52:54.108Z,99213.99
2023-04-07T07:55:22.033Z,99218.14
2023-04-07T07:57:49.909Z,99213.07
2023-04-07T08:00:17.872Z,99215.61
2023-04-07T08:02:45.884Z,99214.23
2023-04-07T08:05:14.205Z,99206.77
2023-04-07T08:07:43.137Z,99211.76
2023-04-07T08:10:11.007Z,99218.55
2023-04-07T08:12:39.647Z,99218.95
2023-04-07T08:15:09.849Z,99218.43
2023-04-07T08:17:37.948Z,99220.17
2023-04-07T08:20:06.843Z,99215.21
2023-04-07T08:22:34.760Z,99220.52
2023-04-07T08:25:02.876Z,99216.41
2023-04-07T08:27:30.753Z,99213.05
2023-04-07T08:30:03.864Z,99216.79
2023-04-07T08:32:42.147Z,99218.73
2023-04-07T08:35:11.322Z,99212.63
2023-04-07T08:37:41.149Z,99211.72
2023-04-07T08:40:09.670Z,99217.92
2023-04-07T08:42:41.424Z,99220.20
2023-04-07T08:45:10.009Z,99214.25
2023-04-07T08:47:40.258Z,99211.73
2023-04-07T08:50:10.433Z,99215.30
2023-04-07T08:52:48.965Z,99220.19
2023-04-07T08:55:16.910Z,99225.92
2023-04-07T08:57:46.145Z,99223.99
2023-04-07T09:00:14.701Z,99227.15
2023-04-07T09:02:45.334Z,99218.86
2023-04-07T09:05:14.786Z,99219.58
2023-04-07T09:07:46.091Z,99218.36
2023-04-07T09:10:13.972Z,99220.85
2023-04-07T09:12:42.036Z,99217.96
2023-04-07T09:15:10.753Z,99217.97
2023-04-07T09:17:38.664Z,99217.70
2023-04-07T09:20:06.996Z,99220.92
2023-04-07T09:22:40.220Z,99217.65
2023-04-07T09:25:14.447Z,99221.36
2023-04-07T09:28:00.949Z,99218.02
2023-04-07T09:30:33.441Z,99214.36
2023-04-07T09:33:02.338Z,99212.77
2023-04-07T09:35:30.719Z,99214.51
2023-04-07T09:38:09.447Z,99212.50
2023-04-07T09:40:40.123Z,99217.41
2023-04-07T09:43:18.583Z,99214.55
2023-04-07T09:45:46.849Z,99214.59
2023-04-07T09:48:21.887Z,99209.50
2023-04-07T09:50:51.062Z,99215.90
2023-04-07T09:53:23.460Z,99214.83
2023-04-07T09:55:52.149Z,99210.05
2023-04-07T09:58:20.567Z,99206.66
2023-04-07T10:00:49.177Z,99206.48
2023-04-07T10:03:17.852Z,99205.70
2023-04-07T10:05:46.909Z,99204.17
2023-04-07T10:08:14.756Z,99203.70
2023-04-07T10:10:43.837Z,99203.98
2023-04-07T10:13:12.730Z,99204.02
2023-04-07T10:15:41.655Z,99199.25
2023-04-07T10:18:09.956Z,99203.34
2023-04-07T10:20:44.229Z,99205.89
2023-04-07T10:23:23.771Z,99206.34
2023-04-07T10:25:56.680Z,99202.40
2023-04-07T10:28:28.006Z,99198.23
2023-04-07T10:30:56.354Z,99194.95
2023-04-07T10:33:53.521Z,99199.52
2023-04-07T10:36:22.220Z,99207.45
2023-04-07T10:39:08.595Z,99213.67
2023-04-07T10:41:41.458Z,99203.86
2023-04-07T10:44:38.864Z,99205.89
2023-04-07T10:47:07.059Z,99209.58
2023-04-07T10:49:35.731Z,99207.27
2023-04-07T10:52:12.868Z,99200.13
2023-04-07T10:54:41.650Z,99210.54
2023-04-07T10:57:12.252Z,99205.15
2023-04-07T10:59:46.970Z,99208.14
2023-04-07T11:02:15.114Z,99205.00
2023-04-07T11:04:45.816Z,99202.33
2023-04-07T11:07:14.973Z,99202.70
2023-04-07T11:09:43.260Z,99199.41
2023-04-07T11:12:31.158Z,99202.67
2023-04-07T11:15:16.311Z,99198.54
2023-04-07T11:17:44.232Z,99201.85
2023-04-07T11:20:12.091Z,99200.95
2023-04-07T11:22:40.036Z,99200.71
2023-04-07T11:25:21.791Z,99199.86
2023-04-07T11:27:49.681Z,99188.91
2023-04-07T11:30:18.176Z,99197.63
2023-04-07T11:32:49.189Z,99200.92
2023-04-07T11:35:17.260Z,99197.48
2023-04-07T11:37:45.714Z,99198.05
2023-04-07T11:40:16.900Z,99199.67
2023-04-07T11:42:46.305Z,99198.30
2023-04-07T11:45:19.572Z,99196.35
2023-04-07T11:47:47.769Z,99192.86
2023-04-07T11:50:15.702Z,99199.75
2023-04-07T11:52:44.421Z,99196.61
2023-04-07T11:55:24.311Z,99193.77
2023-04-07T11:57:52.675Z,99191.89
2023-04-07T12:00:21.211Z,99191.42
2023-04-07T12:02:49.091Z,99190.13
2023-04-07T12:05:17.233Z,99192.40
2023-04-07T12:07:54.205Z,99192.95
2023-04-07T12:10:26.304Z,99195.55
2023-04-07T12:12:54.226Z,99193.77
2023-04-07T12:15:22.553Z,99195.70
2023-04-07T12:17:50.812Z,99198.38
2023-04-07T12:20:18.865Z,99196.91
2023-04-07T12:22:47.317Z,99194.45
2023-04-07T12:25:15.458Z,99194.70
2023-04-07T12:27:44.041Z,99197.51
2023-04-07T12:30:13.104Z,99199.41
2023-04-07T12:32:41.349Z,99199.75
2023-04-07T12:35:09.216Z,99201.45
2023-04-07T12:37:37.431Z,99194.85
2023-04-07T12:40:06.240Z,99189.73
2023-04-07T12:42:34.204Z,99188.31
2023-04-07T12:45:03.126Z,99185.61
2023-04-07T12:47:32.163Z,99185.35
2023-04-07T12:50:00.480Z,99189.28
2023-04-07T12:52:28.405Z,99187.70
2023-04-07T12:54:57.161Z,99189.01
2023-04-07T12:57:25.136Z,99184.38
2023-04-07T12:59:53.657Z,99173.25
2023-04-07T13:02:21.675Z,99171.23
2023-04-07T13:04:49.634Z,99170.80
2023-04-07T13:07:17.650Z,99171.73
2023-04-07T13:09:45.542Z,99163.29
2023-04-07T13:12:13.932Z,99164.11
2023-04-07T13:14:52.897Z,99169.33
2023-04-07T13:17:25.498Z,99166.51
2023-04-07T13:19:54.255Z,99165.95
2023-04-07T13:22:24.572Z,99174.48
2023-04-07T13:24:52.709Z,99169.94
2023-04-07T13:27:21.203Z,99170.12
2023-04-07T13:29:49.087Z,99170.81
2023-04-07T13:32:17.147Z,99171.68
2023-04-07T13:34:45.402Z,99174.49
2023-04-07T13:37:13.570Z,99177.27
2023-04-07T13:39:41.413Z,99175.60
2023-04-07T13:42:10.923Z,99177.05
2023-04-07T13:44:40.568Z,99173.38
2023-04-07T13:47:08.653Z,99172.48
2023-04-07T13:49:36.935Z,99180.33
2023-04-07T13:52:04.960Z,99180.17
2023-04-07T13:54:32.823Z,99179.38
2023-04-07T13:57:00.784Z,99179.27
2023-04-07T13:59:28.572Z,99176.07
2023-04-07T14:01:56.694Z,99173.63
2023-04-07T14:04:24.681Z,99178.17
2023-04-07T14:06:53.032Z,99174.54
2023-04-07T14:09:20.894Z,99170.69
2023-04-07T14:11:48.797Z,99168.44
2023-04-07T14:14:16.680Z,99165.20
2023-04-07T14:16:44.675Z,99159.73
2023-04-07T14:19:12.519Z,99155.77
2023-04-07T14:21:40.504Z,99161.27
2023-04-07T14:24:08.420Z,99162.86
2023-04-07T14:26:36.320Z,99168.67
2023-04-07T14:29:04.124Z,99163.08
2023-04-07T14:31:32.053Z,99168.17
2023-04-07T14:34:00.010Z,99168.09
2023-04-07T14:36:27.958Z,99172.15
2023-04-07T14:38:56.969Z,99173.25
2023-04-07T14:41:24.989Z,99173.38
2023-04-07T14:43:56.345Z,99170.16
2023-04-07T14:46:25.054Z,99172.60
2023-04-07T14:48:53.403Z,99175.80
2023-04-07T14:51:21.491Z,99175.68
2023-04-07T14:53:56.316Z,99178.20
2023-04-07T14:56:25.422Z,99178.82
2023-04-07T14:58:53.279Z,99182.22
2023-04-07T15:01:21.253Z,99177.77
2023-04-07T15:03:52.528Z,99177.65
2023-04-07T15:06:21.003Z,99180.20
2023-04-07T15:08:48.837Z,99179.64
2023-04-07T15:11:16.649Z,99179.20
2023-04-07T15:13:44.480Z,99185.10
2023-04-07T15:16:14.457Z,99184.52
2023-04-07T15:18:44.784Z,99184.63
2023-04-07T15:21:13.989Z,99184.30
2023-04-07T15:23:42.147Z,99183.02
2023-04-07T15:26:10.393Z,99185.08
2023-04-07T15:28:39.132Z,99183.66
2023-04-07T15:31:08.888Z,99179.61
2023-04-07T15:33:38.090Z,99185.14
2023-04-07T15:36:07.642Z,99182.23
2023-04-07T15:38:36.281Z,99175.35
2023-04-07T15:41:04.312Z,99176.42
2023-04-07T15:43:32.301Z,99177.21
2023-04-07T15:46:00.537Z,99179.48
2023-04-07T15:48:28.366Z,99180.92
2023-04-07T15:50:56.456Z,99187.45
2023-04-07T15:53:24.357Z,99186.37
2023-04-07T15:55:52.221Z,99190.33
2023-04-07T15:58:20.172Z,99189.23
2023-04-07T16:00:48.147Z,99185.27
2023-04-07T16:03:16.219Z,99184.65
2023-04-07T16:05:44.118Z,99182.69
2023-04-07T16:08:13.708Z,99190.27
2023-04-07T16:10:41.820Z,99193.33
2023-04-07T16:13:10.461Z,99195.85
2023-04-07T16:15:41.026Z,99195.51
2023-04-07T16:18:11.495Z,99197.90
2023-04-07T16:20:39.680Z,99196.15
2023-04-07T16:23:07.692Z,99201.88
2023-04-07T16:25:35.599Z,99207.60
2023-04-07T16:28:03.553Z,99207.66
2023-04-07T16:30:31.425Z,99209.20
2023-04-07T16:33:00.443Z,99207.33
2023-04-07T16:35:30.869Z,99213.91
2023-04-07T16:38:04.361Z,99221.38
2023-04-07T16:40:32.722Z,99222.73
2023-04-07T16:43:00.817Z,99226.56
2023-04-07T16:45:28.871Z,99233.48
2023-04-07T16:47:56.917Z,99234.23
2023-04-07T16:50:24.902Z,99233.77
2023-04-07T16:52:52.989Z,99232.59
2023-04-07T16:55:21.135Z,99238.64
2023-04-07T16:57:49.409Z,99237.33
2023-04-07T17:00:17.487Z,99234.27
2023-04-07T17:02:45.452Z,99237.33
2023-04-07T17:05:13.828Z,99240.39
2023-04-07T17:07:41.646Z,99241.65
2023-04-07T17:10:09.857Z,99241.84
2023-04-07T17:12:37.683Z,99243.74
2023-04-07T17:15:06.483Z,99243.02
2023-04-07T17:17:34.495Z,99241.29
2023-04-07T17:20:03.697Z,99244.48
2023-04-07T17:22:31.762Z,99246.00
2023-04-07T17:24:59.824Z,99244.41
2023-04-07T17:27:28.254Z,99244.14
2023-04-07T17:29:56.158Z,99241.13
2023-04-07T17:32:24.074Z,99245.03
2023-04-07T17:34:52.054Z,99246.83
2023-04-07T17:37:19.980Z,99244.84
2023-04-07T17:39:47.877Z,99243.30
2023-04-07T17:42:15.692Z,99248.17
2023-04-07T17:44:43.773Z,99249.52
2023-04-07T17:47:12.418Z,99250.38
2023-04-07T17:49:40.632Z,99251.25
2023-04-07T17:52:09.035Z,99251.67
2023-04-07T17:54:37.528Z,99248.65
2023-04-07T17:57:06.178Z,99249.02
2023-04-07T17:59:34.357Z,99249.39
2023-04-07T18:02:08.876Z,99251.14
2023-04-07T18:04:37.850Z,99253.02
2023-04-07T18:07:06.893Z,99254.57
2023-04-07T18:09:35.404Z,99257.73
2023-04-07T18:12:03.699Z,99258.81
2023-04-07T18:14:31.945Z,99254.25
2023-04-07T18:17:00.537Z,99256.70
2023-04-07T18:19:30.101Z,99257.75
2023-04-07T18:21:58.038Z,99258.84
2023-04-07T18:24:26.037Z,99262.88
2023-04-07T18:26:54.218Z,99265.57
2023-04-07T18:29:22.648Z,99260.90
2023-04-07T18:31:51.048Z,99265.41
2023-04-07T18:34:19.083Z,99264.55
2023-04-07T18:36:47.624Z,99268.11
2023-04-07T18:39:15.695Z,99270.02
2023-04-07T18:41:45.471Z,99271.14
2023-04-07T18:44:14.304Z,99274.08
2023-04-07T18:46:42.138Z,99273.34
2023-04-07T18:49:10.401Z,99273.48
2023-04-07T18:51:38.914Z,99277.05
2023-04-07T18:54:07.270Z,99276.81
2023-04-07T18:56:35.417Z,99274.58
2023-04-07T18:59:03.335Z,99274.06
2023-04-07T19:01:31.684Z,99274.67
2023-04-07T19:04:00.017Z,99276.80
2023-04-07T19:06:30.466Z,99277.55
2023-04-07T19:08:59.018Z,99274.51
2023-04-07T19:11:27.313Z,99275.34
2023-04-07T19:13:56.449Z,99271.53
2023-04-07T19:16:24.922Z,99265.70
2023-04-07T19:18:53.480Z,99265.73
2023-04-07T19:21:21.371Z,99261.80
2023-04-07T19:23:49.443Z,99266.14
2023-04-07T19:26:17.855Z,99261.23
2023-04-07T19:28:46.297Z,99262.27
2023-04-07T19:31:14.730Z,99261.17
2023-04-07T19:33:42.882Z,99263.89
2023-04-07T19:36:11.916Z,99269.11
2023-04-07T19:38:40.064Z,99269.36
2023-04-07T19:41:07.901Z,99273.48
2023-04-07T19:43:36.192Z,99278.58
2023-04-07T19:46:04.956Z,99280.02
2023-04-07T19:48:33.339Z,99278.88
2023-04-07T19:51:01.621Z,99275.59
2023-04-07T19:53:29.511Z,99275.33
2023-04-07T19:55:57.405Z,99275.71
2023-04-07T19:58:25.316Z,99271.73
2023-04-07T20:00:54.203Z,99276.46
2023-04-07T20:03:22.721Z,99273.33
2023-04-07T20:05:52.896Z,99270.21
2023-04-07T20:08:20.814Z,99268.67
2023-04-07T20:10:51.929Z,99267.60
2023-04-07T20:13:20.374Z,99271.23
2023-04-07T20:15:49.139Z,99274.77
2023-04-07T20:18:18.543Z,99274.23
2023-04-07T20:20:46.485Z,99269.71
2023-04-07T20:23:16.094Z,99272.80
2023-04-07T20:25:44.024Z,99272.30
2023-04-07T20:28:11.872Z,99275.70
2023-04-07T20:30:39.996Z,99276.77
2023-04-07T20:33:08.516Z,99271.20
2023-04-07T20:35:37.255Z,99269.92
2023-04-07T20:38:05.196Z,99272.27
2023-04-07T20:40:39.697Z,99268.88
2023-04-07T20:43:07.945Z,99268.38
2023-04-07T20:45:35.977Z,99268.30
2023-04-07T20:48:04.738Z,99264.56
2023-04-07T20:50:33.990Z,99271.15
2023-04-07T20:53:02.374Z,99268.88
2023-04-07T20:55:30.266Z,99267.33
2023-04-07T20:57:58.164Z,99267.90
2023-04-07T21:00:26.110Z,99271.09
2023-04-07T21:02:54.071Z,99270.42
2023-04-07T21:05:22.091Z,99270.60
2023-04-07T21:07:50.030Z,99266.77
2023-04-07T21:10:18.085Z,99265.80
2023-04-07T21:12:46.323Z,99267.04
2023-04-07T21:15:14.835Z,99266.11
2023-04-07T21:17:42.736Z,99261.14
2023-04-07T21:20:11.034Z,99262.59
2023-04-07T21:22:39.047Z,99264.61
2023-04-07T21:25:07.372Z,99264.80
2023-04-07T21:27:36.189Z,99260.92
2023-04-07T21:30:06.450Z,99259.86
2023-04-07T21:32:34.382Z,99257.73
2023-04-07T21:35:02.305Z,99256.09
2023-04-07T21:37:30.350Z,99252.29
2023-04-07T21:39:58.244Z,99245.27
2023-04-07T21:42:26.361Z,99239.84
2023-04-07T21:44:54.203Z,99243.76
2023-04-07T21:47:22.062Z,99242.83
2023-04-07T21:49:49.995Z,99241.27
2023-04-07T21:52:17.970Z,99236.16
2023-04-07T21:54:46.654Z,99236.95
2023-04-07T21:57:14.505Z,99236.04
2023-04-07T21:59:42.364Z,99231.67
2023-04-07T22:02:10.728Z,99233.64
2023-04-07T22:04:38.800Z,99234.28
2023-04-07T22:07:06.783Z,99238.69
2023-04-07T22:09:34.759Z,99236.41
2023-04-07T22:12:02.855Z,99234.36
2023-04-07T22:14:30.767Z,99238.44
2023-04-07T22:16:58.658Z,99238.14
2023-04-07T22:19:26.437Z,99235.54
2023-04-07T22:21:54.291Z,99227.95
2023-04-07T22:24:22.120Z,99216.02
2023-04-07T22:26:50.327Z,99212.42
2023-04-07T22:29:18.181Z,99214.66
2023-04-07T22:31:46.057Z,99215.05
2023-04-07T22:34:14.057Z,99217.19
2023-04-07T22:36:42.049Z,99214.27
2023-04-07T22:39:10.174Z,99211.27
2023-04-07T22:41:38.015Z,99209.96
2023-04-07T22:44:05.940Z,99209.70
2023-04-07T22:46:33.759Z,99212.10
2023-04-07T22:49:01.829Z,99217.29
2023-04-07T22:51:29.980Z,99219.23
2023-04-07T22:53:57.800Z,99222.33
2023-04-07T22:56:27.250Z,99226.57
2023-04-07T22:58:55.188Z,99226.82
2023-04-07T23:01:23.064Z,99225.27
2023-04-07T23:03:51.007Z,99229.22
2023-04-07T23:06:18.824Z,99228.89
2023-04-07T23:08:46.694Z,99229.23
2023-04-07T23:11:16.070Z,99235.66
2023-04-07T23:13:44.209Z,99236.38
2023-04-07T23:16:13.524Z,99239.28
2023-04-07T23:18:42.464Z,99237.76
2023-04-07T23:21:12.264Z,99235.04
2023-04-07T23:23:40.187Z,99238.98
2023-04-07T23:26:08.110Z,99240.81
2023-04-07T23:28:36.015Z,99242.37
2023-04-07T23:31:04.148Z,99237.14
2023-04-07T23:33:32.178Z,99235.41
2023-04-07T23:36:00.243Z,99233.40
2023-04-07T23:38:28.159Z,99237.54
2023-04-07T23:40:56.291Z,99238.50
2023-04-07T23:43:24.095Z,99239.34
2023-04-07T23:45:51.974Z,99242.97
2023-04-07T23:48:19.809Z,99241.22
2023-04-07T23:50:49.688Z,99240.58
2023-04-07T23:53:18.345Z,99242.02
2023-04-07T23:55:46.355Z,99244.11
2023-04-07T23:58:14.194Z,99244.13
